sensor_id;sensor_type;location;lat;lon;timestamp;P1;durP1;ratioP1;P2;durP2;ratioP2
920;SDS011;447;51.332;6.778;2022-11-18T00:01:17;2.00;;;1.63;;
920;SDS011;447;51.332;6.778;2022-11-18T00:03:47;2.27;;;1.50;;
920;SDS011;447;51.332;6.778;2022-11-18T00:06:21;3.10;;;1.60;;
920;SDS011;447;51.332;6.778;2022-11-18T00:08:51;3.23;;;1.53;;
920;SDS011;447;51.332;6.778;2022-11-18T00:11:21;2.93;;;1.90;;
920;SDS011;447;51.332;6.778;2022-11-18T00:14:11;2.90;;;1.93;;
920;SDS011;447;51.332;6.778;2022-11-18T00:16:54;3.30;;;1.50;;
920;SDS011;447;51.332;6.778;2022-11-18T00:19:23;3.83;;;2.13;;
920;SDS011;447;51.332;6.778;2022-11-18T00:21:57;2.37;;;1.73;;
920;SDS011;447;51.332;6.778;2022-11-18T00:24:23;6.37;;;2.63;;
920;SDS011;447;51.332;6.778;2022-11-18T00:26:52;2.80;;;1.90;;
920;SDS011;447;51.332;6.778;2022-11-18T00:29:20;2.63;;;1.60;;
920;SDS011;447;51.332;6.778;2022-11-18T00:31:46;2.80;;;1.83;;
920;SDS011;447;51.332;6.778;2022-11-18T00:34:13;4.67;;;2.03;;
920;SDS011;447;51.332;6.778;2022-11-18T00:36:43;4.93;;;1.70;;
920;SDS011;447;51.332;6.778;2022-11-18T00:39:10;2.73;;;1.73;;
920;SDS011;447;51.332;6.778;2022-11-18T00:41:38;2.20;;;1.73;;
920;SDS011;447;51.332;6.778;2022-11-18T00:44:30;2.40;;;1.40;;
920;SDS011;447;51.332;6.778;2022-11-18T00:46:55;3.00;;;1.70;;
920;SDS011;447;51.332;6.778;2022-11-18T00:49:24;3.33;;;1.67;;
920;SDS011;447;51.332;6.778;2022-11-18T00:52:00;3.60;;;1.93;;
920;SDS011;447;51.332;6.778;2022-11-18T00:54:26;3.47;;;1.77;;
920;SDS011;447;51.332;6.778;2022-11-18T00:56:57;3.03;;;1.83;;
920;SDS011;447;51.332;6.778;2022-11-18T06:34:48;2.90;;;1.93;;
920;SDS011;447;51.332;6.778;2022-11-18T06:37:42;2.70;;;1.70;;
920;SDS011;447;51.332;6.778;2022-11-18T06:44:07;4.77;;;1.47;;
920;SDS011;447;51.332;6.778;2022-11-18T06:46:45;1.97;;;1.50;;
920;SDS011;447;51.332;6.778;2022-11-18T06:53:29;2.03;;;1.37;;
920;SDS011;447;51.332;6.778;2022-11-18T06:55:55;2.70;;;1.90;;
920;SDS011;447;51.332;6.778;2022-11-18T06:59:25;1.97;;;1.80;;
920;SDS011;447;51.332;6.778;2022-11-18T07:04:49;2.10;;;1.50;;
920;SDS011;447;51.332;6.778;2022-11-18T07:07:15;5.30;;;2.10;;
920;SDS011;447;51.332;6.778;2022-11-18T07:09:41;3.17;;;1.97;;
920;SDS011;447;51.332;6.778;2022-11-18T07:12:07;3.63;;;1.70;;
920;SDS011;447;51.332;6.778;2022-11-18T07:14:33;4.10;;;2.00;;
920;SDS011;447;51.332;6.778;2022-11-18T07:16:59;3.13;;;1.63;;
920;SDS011;447;51.332;6.778;2022-11-18T07:19:27;2.67;;;1.70;;
920;SDS011;447;51.332;6.778;2022-11-18T07:21:53;2.70;;;2.07;;
920;SDS011;447;51.332;6.778;2022-11-18T07:24:19;2.10;;;1.60;;
920;SDS011;447;51.332;6.778;2022-11-18T07:26:45;2.13;;;1.60;;
920;SDS011;447;51.332;6.778;2022-11-18T07:29:11;4.53;;;1.97;;
920;SDS011;447;51.332;6.778;2022-11-18T07:31:37;2.30;;;1.57;;
920;SDS011;447;51.332;6.778;2022-11-18T07:34:04;2.53;;;1.70;;
920;SDS011;447;51.332;6.778;2022-11-18T07:36:31;2.13;;;1.47;;
920;SDS011;447;51.332;6.778;2022-11-18T07:38:58;2.60;;;1.93;;
920;SDS011;447;51.332;6.778;2022-11-18T07:41:25;3.60;;;2.23;;
920;SDS011;447;51.332;6.778;2022-11-18T07:43:55;1.73;;;1.47;;
920;SDS011;447;51.332;6.778;2022-11-18T07:46:23;3.53;;;1.90;;
920;SDS011;447;51.332;6.778;2022-11-18T07:49:07;2.60;;;1.23;;
920;SDS011;447;51.332;6.778;2022-11-18T07:51:36;3.87;;;1.77;;
920;SDS011;447;51.332;6.778;2022-11-18T07:54:08;3.40;;;2.20;;
920;SDS011;447;51.332;6.778;2022-11-18T07:56:36;4.10;;;2.20;;
920;SDS011;447;51.332;6.778;2022-11-18T07:59:02;6.20;;;1.90;;
920;SDS011;447;51.332;6.778;2022-11-18T08:01:28;2.70;;;1.50;;
920;SDS011;447;51.332;6.778;2022-11-18T08:04:02;3.03;;;1.50;;
920;SDS011;447;51.332;6.778;2022-11-18T08:06:33;2.53;;;1.43;;
920;SDS011;447;51.332;6.778;2022-11-18T08:08:59;3.07;;;2.23;;
920;SDS011;447;51.332;6.778;2022-11-18T08:11:26;1.90;;;1.60;;
920;SDS011;447;51.332;6.778;2022-11-18T08:13:52;3.97;;;1.70;;
920;SDS011;447;51.332;6.778;2022-11-18T08:16:19;2.83;;;1.63;;
920;SDS011;447;51.332;6.778;2022-11-18T08:19:15;3.07;;;1.83;;
920;SDS011;447;51.332;6.778;2022-11-18T08:21:41;2.10;;;1.53;;
920;SDS011;447;51.332;6.778;2022-11-18T08:24:08;2.40;;;1.50;;
920;SDS011;447;51.332;6.778;2022-11-18T08:26:35;4.57;;;1.67;;
920;SDS011;447;51.332;6.778;2022-11-18T08:29:02;5.30;;;1.90;;
920;SDS011;447;51.332;6.778;2022-11-18T08:31:28;2.53;;;1.70;;
920;SDS011;447;51.332;6.778;2022-11-18T08:33:55;4.10;;;1.90;;
920;SDS011;447;51.332;6.778;2022-11-18T08:36:27;3.53;;;1.73;;
920;SDS011;447;51.332;6.778;2022-11-18T08:38:55;5.20;;;1.90;;
920;SDS011;447;51.332;6.778;2022-11-18T08:41:31;2.40;;;1.70;;
920;SDS011;447;51.332;6.778;2022-11-18T08:44:21;2.70;;;1.60;;
920;SDS011;447;51.332;6.778;2022-11-18T08:49:58;2.17;;;1.70;;
920;SDS011;447;51.332;6.778;2022-11-18T08:52:24;3.20;;;1.53;;
920;SDS011;447;51.332;6.778;2022-11-18T08:54:50;3.70;;;1.77;;
920;SDS011;447;51.332;6.778;2022-11-18T09:01:10;4.00;;;1.60;;
920;SDS011;447;51.332;6.778;2022-11-18T09:03:39;2.70;;;1.80;;
920;SDS011;447;51.332;6.778;2022-11-18T09:06:06;5.33;;;1.50;;
920;SDS011;447;51.332;6.778;2022-11-18T09:11:25;3.67;;;1.93;;
920;SDS011;447;51.332;6.778;2022-11-18T09:13:55;4.50;;;1.60;;
920;SDS011;447;51.332;6.778;2022-11-18T09:16:23;2.00;;;1.80;;
920;SDS011;447;51.332;6.778;2022-11-18T09:18:57;4.90;;;2.10;;
920;SDS011;447;51.332;6.778;2022-11-18T09:21:24;3.63;;;2.03;;
920;SDS011;447;51.332;6.778;2022-11-18T09:24:25;1.63;;;1.53;;
920;SDS011;447;51.332;6.778;2022-11-18T09:26:54;3.20;;;2.17;;
920;SDS011;447;51.332;6.778;2022-11-18T09:33:32;2.53;;;1.70;;
920;SDS011;447;51.332;6.778;2022-11-18T09:35:58;3.33;;;1.87;;
920;SDS011;447;51.332;6.778;2022-11-18T09:38:25;2.40;;;1.40;;
920;SDS011;447;51.332;6.778;2022-11-18T09:49:59;3.13;;;2.00;;
920;SDS011;447;51.332;6.778;2022-11-18T09:52:28;3.13;;;1.70;;
920;SDS011;447;51.332;6.778;2022-11-18T09:54:58;4.80;;;2.17;;
920;SDS011;447;51.332;6.778;2022-11-18T09:57:25;3.97;;;1.90;;
920;SDS011;447;51.332;6.778;2022-11-18T09:59:59;2.63;;;1.87;;
920;SDS011;447;51.332;6.778;2022-11-18T10:02:36;4.73;;;2.00;;
920;SDS011;447;51.332;6.778;2022-11-18T10:05:14;5.47;;;3.30;;
920;SDS011;447;51.332;6.778;2022-11-18T10:07:53;5.70;;;2.40;;
920;SDS011;447;51.332;6.778;2022-11-18T10:10:29;5.23;;;2.03;;
920;SDS011;447;51.332;6.778;2022-11-18T10:13:28;6.70;;;2.00;;
920;SDS011;447;51.332;6.778;2022-11-18T10:19:01;4.80;;;2.13;;
920;SDS011;447;51.332;6.778;2022-11-18T10:24:35;6.80;;;2.30;;
920;SDS011;447;51.332;6.778;2022-11-18T10:27:07;8.57;;;1.63;;
920;SDS011;447;51.332;6.778;2022-11-18T10:29:39;4.77;;;1.87;;
920;SDS011;447;51.332;6.778;2022-11-18T10:32:07;3.73;;;2.10;;
920;SDS011;447;51.332;6.778;2022-11-18T10:46:23;3.80;;;2.13;;
920;SDS011;447;51.332;6.778;2022-11-18T10:49:13;5.20;;;2.47;;
920;SDS011;447;51.332;6.778;2022-11-18T10:51:41;3.50;;;2.00;;
920;SDS011;447;51.332;6.778;2022-11-18T10:54:19;3.80;;;1.90;;
920;SDS011;447;51.332;6.778;2022-11-18T11:02:00;6.37;;;1.93;;
920;SDS011;447;51.332;6.778;2022-11-18T11:04:44;3.53;;;1.93;;
920;SDS011;447;51.332;6.778;2022-11-18T11:07:35;7.37;;;2.10;;
920;SDS011;447;51.332;6.778;2022-11-18T11:15:20;2.50;;;2.00;;
920;SDS011;447;51.332;6.778;2022-11-18T11:18:00;7.60;;;2.27;;
920;SDS011;447;51.332;6.778;2022-11-18T11:20:51;7.13;;;2.10;;
920;SDS011;447;51.332;6.778;2022-11-18T11:23:17;4.33;;;2.07;;
920;SDS011;447;51.332;6.778;2022-11-18T11:48:52;5.73;;;2.13;;
920;SDS011;447;51.332;6.778;2022-11-18T11:56:44;4.27;;;2.20;;
920;SDS011;447;51.332;6.778;2022-11-18T11:59:27;4.23;;;1.97;;
920;SDS011;447;51.332;6.778;2022-11-18T12:07:27;3.70;;;1.90;;
920;SDS011;447;51.332;6.778;2022-11-18T12:12:55;4.97;;;2.00;;
920;SDS011;447;51.332;6.778;2022-11-18T12:16:03;3.30;;;2.00;;
920;SDS011;447;51.332;6.778;2022-11-18T12:21:01;4.57;;;1.77;;
920;SDS011;447;51.332;6.778;2022-11-18T12:23:28;3.90;;;2.50;;
920;SDS011;447;51.332;6.778;2022-11-18T12:25:59;6.03;;;1.70;;
920;SDS011;447;51.332;6.778;2022-11-18T12:28:48;5.27;;;1.97;;
920;SDS011;447;51.332;6.778;2022-11-18T12:33:56;4.07;;;1.90;;
920;SDS011;447;51.332;6.778;2022-11-18T12:36:32;3.57;;;2.03;;
920;SDS011;447;51.332;6.778;2022-11-18T12:41:51;6.83;;;2.40;;
920;SDS011;447;51.332;6.778;2022-11-18T12:44:40;2.30;;;2.10;;
920;SDS011;447;51.332;6.778;2022-11-18T12:47:08;7.40;;;1.80;;
920;SDS011;447;51.332;6.778;2022-11-18T12:54:54;6.60;;;2.23;;
920;SDS011;447;51.332;6.778;2022-11-18T12:57:29;4.53;;;1.80;;
920;SDS011;447;51.332;6.778;2022-11-18T13:02:57;3.33;;;1.80;;
920;SDS011;447;51.332;6.778;2022-11-18T13:05:28;4.10;;;1.80;;
920;SDS011;447;51.332;6.778;2022-11-18T13:08:08;6.17;;;1.70;;
920;SDS011;447;51.332;6.778;2022-11-18T13:13:37;2.83;;;1.93;;
920;SDS011;447;51.332;6.778;2022-11-18T13:16:18;7.23;;;2.30;;
920;SDS011;447;51.332;6.778;2022-11-18T13:19:06;4.37;;;2.17;;
920;SDS011;447;51.332;6.778;2022-11-18T13:21:33;3.50;;;1.77;;
920;SDS011;447;51.332;6.778;2022-11-18T13:24:19;4.57;;;1.60;;
920;SDS011;447;51.332;6.778;2022-11-18T13:26:47;3.57;;;2.00;;
920;SDS011;447;51.332;6.778;2022-11-18T13:34:50;3.70;;;1.70;;
920;SDS011;447;51.332;6.778;2022-11-18T13:37:36;3.20;;;2.20;;
920;SDS011;447;51.332;6.778;2022-11-18T13:40:29;3.07;;;1.97;;
920;SDS011;447;51.332;6.778;2022-11-18T13:43:02;3.13;;;1.90;;
920;SDS011;447;51.332;6.778;2022-11-18T13:45:28;4.73;;;2.20;;
920;SDS011;447;51.332;6.778;2022-11-18T13:48:04;8.93;;;2.73;;
920;SDS011;447;51.332;6.778;2022-11-18T13:50:37;3.50;;;1.90;;
920;SDS011;447;51.332;6.778;2022-11-18T13:53:29;4.43;;;2.20;;
920;SDS011;447;51.332;6.778;2022-11-18T13:56:02;5.33;;;2.77;;
920;SDS011;447;51.332;6.778;2022-11-18T13:58:40;4.60;;;2.37;;
920;SDS011;447;51.332;6.778;2022-11-18T14:03:56;3.70;;;2.70;;
920;SDS011;447;51.332;6.778;2022-11-18T14:06:31;6.80;;;2.20;;
920;SDS011;447;51.332;6.778;2022-11-18T14:11:58;9.10;;;2.23;;
920;SDS011;447;51.332;6.778;2022-11-18T14:14:30;5.73;;;2.23;;
920;SDS011;447;51.332;6.778;2022-11-18T14:17:18;6.63;;;2.53;;
920;SDS011;447;51.332;6.778;2022-11-18T14:19:45;4.50;;;2.47;;
920;SDS011;447;51.332;6.778;2022-11-18T14:26:30;5.10;;;1.93;;
920;SDS011;447;51.332;6.778;2022-11-18T14:36:16;3.57;;;2.23;;
920;SDS011;447;51.332;6.778;2022-11-18T14:39:41;3.63;;;1.70;;
920;SDS011;447;51.332;6.778;2022-11-18T14:42:53;3.17;;;1.90;;
920;SDS011;447;51.332;6.778;2022-11-18T14:53:18;3.93;;;2.07;;
920;SDS011;447;51.332;6.778;2022-11-18T14:56:52;3.23;;;2.03;;
920;SDS011;447;51.332;6.778;2022-11-18T15:03:36;7.43;;;2.50;;
920;SDS011;447;51.332;6.778;2022-11-18T15:06:51;4.80;;;3.00;;
920;SDS011;447;51.332;6.778;2022-11-18T15:13:24;5.20;;;2.60;;
920;SDS011;447;51.332;6.778;2022-11-18T15:16:48;3.40;;;2.37;;
920;SDS011;447;51.332;6.778;2022-11-18T15:19:43;3.50;;;1.97;;
920;SDS011;447;51.332;6.778;2022-11-18T15:23:00;2.40;;;2.20;;
920;SDS011;447;51.332;6.778;2022-11-18T15:26:33;4.23;;;2.17;;
920;SDS011;447;51.332;6.778;2022-11-18T15:29:56;4.00;;;2.77;;
920;SDS011;447;51.332;6.778;2022-11-18T15:32:23;4.93;;;2.33;;
920;SDS011;447;51.332;6.778;2022-11-18T15:34:57;3.40;;;2.40;;
920;SDS011;447;51.332;6.778;2022-11-18T15:37:54;4.33;;;2.10;;
920;SDS011;447;51.332;6.778;2022-11-18T15:49:35;2.53;;;2.23;;
920;SDS011;447;51.332;6.778;2022-11-18T15:53:01;3.53;;;2.60;;
920;SDS011;447;51.332;6.778;2022-11-18T15:55:54;5.10;;;2.60;;
920;SDS011;447;51.332;6.778;2022-11-18T15:59:27;3.57;;;2.20;;
920;SDS011;447;51.332;6.778;2022-11-18T16:02:34;3.90;;;2.97;;
920;SDS011;447;51.332;6.778;2022-11-18T16:09:35;3.73;;;2.57;;
920;SDS011;447;51.332;6.778;2022-11-18T16:12:50;4.80;;;2.87;;
920;SDS011;447;51.332;6.778;2022-11-18T16:16:31;3.70;;;2.90;;
920;SDS011;447;51.332;6.778;2022-11-18T16:19:41;4.60;;;2.53;;
920;SDS011;447;51.332;6.778;2022-11-18T16:23:20;3.97;;;2.47;;
920;SDS011;447;51.332;6.778;2022-11-18T16:27:02;4.10;;;2.47;;
920;SDS011;447;51.332;6.778;2022-11-18T16:29:28;3.43;;;2.67;;
920;SDS011;447;51.332;6.778;2022-11-18T16:32:10;2.93;;;2.50;;
920;SDS011;447;51.332;6.778;2022-11-18T16:34:42;3.00;;;2.50;;
920;SDS011;447;51.332;6.778;2022-11-18T16:37:16;3.43;;;2.50;;
920;SDS011;447;51.332;6.778;2022-11-18T16:40:05;4.07;;;2.20;;
920;SDS011;447;51.332;6.778;2022-11-18T16:42:46;3.00;;;2.70;;
920;SDS011;447;51.332;6.778;2022-11-18T16:45:15;10.10;;;2.97;;
920;SDS011;447;51.332;6.778;2022-11-18T16:47:47;2.80;;;2.50;;
920;SDS011;447;51.332;6.778;2022-11-18T16:50:13;4.50;;;3.10;;
920;SDS011;447;51.332;6.778;2022-11-18T16:52:51;3.63;;;2.13;;
920;SDS011;447;51.332;6.778;2022-11-18T16:56:08;4.93;;;2.30;;
920;SDS011;447;51.332;6.778;2022-11-18T17:02:37;3.17;;;2.50;;
920;SDS011;447;51.332;6.778;2022-11-18T17:05:46;3.40;;;2.00;;
920;SDS011;447;51.332;6.778;2022-11-18T17:08:15;6.13;;;2.80;;
920;SDS011;447;51.332;6.778;2022-11-18T17:10:41;2.83;;;1.93;;
920;SDS011;447;51.332;6.778;2022-11-18T17:13:07;4.40;;;2.37;;
920;SDS011;447;51.332;6.778;2022-11-18T17:15:35;5.20;;;2.67;;
920;SDS011;447;51.332;6.778;2022-11-18T17:18:01;5.07;;;3.13;;
920;SDS011;447;51.332;6.778;2022-11-18T17:20:29;2.37;;;2.17;;
920;SDS011;447;51.332;6.778;2022-11-18T17:23:26;3.57;;;2.03;;
920;SDS011;447;51.332;6.778;2022-11-18T17:25:53;2.83;;;2.20;;
920;SDS011;447;51.332;6.778;2022-11-18T17:28:19;4.00;;;2.30;;
920;SDS011;447;51.332;6.778;2022-11-18T17:30:45;2.60;;;2.27;;
920;SDS011;447;51.332;6.778;2022-11-18T17:33:10;4.70;;;3.27;;
920;SDS011;447;51.332;6.778;2022-11-18T17:35:37;2.90;;;2.50;;
920;SDS011;447;51.332;6.778;2022-11-18T17:38:03;4.20;;;2.80;;
920;SDS011;447;51.332;6.778;2022-11-18T17:40:29;3.93;;;2.40;;
920;SDS011;447;51.332;6.778;2022-11-18T17:42:55;4.60;;;2.67;;
920;SDS011;447;51.332;6.778;2022-11-18T17:45:22;3.73;;;2.43;;
920;SDS011;447;51.332;6.778;2022-11-18T17:47:48;5.77;;;2.73;;
920;SDS011;447;51.332;6.778;2022-11-18T17:50:14;3.77;;;2.70;;
920;SDS011;447;51.332;6.778;2022-11-18T17:52:40;3.40;;;2.90;;
920;SDS011;447;51.332;6.778;2022-11-18T17:55:06;6.83;;;3.10;;
920;SDS011;447;51.332;6.778;2022-11-18T17:57:33;5.57;;;3.10;;
920;SDS011;447;51.332;6.778;2022-11-18T17:59:59;4.90;;;3.10;;
920;SDS011;447;51.332;6.778;2022-11-18T18:02:25;2.90;;;2.60;;
920;SDS011;447;51.332;6.778;2022-11-18T18:04:51;5.40;;;3.10;;
920;SDS011;447;51.332;6.778;2022-11-18T18:07:17;4.57;;;3.07;;
920;SDS011;447;51.332;6.778;2022-11-18T18:09:43;3.33;;;2.77;;
920;SDS011;447;51.332;6.778;2022-11-18T18:12:09;7.37;;;2.90;;
920;SDS011;447;51.332;6.778;2022-11-18T18:18:56;9.30;;;3.57;;
920;SDS011;447;51.332;6.778;2022-11-18T18:21:22;4.03;;;3.40;;
920;SDS011;447;51.332;6.778;2022-11-18T18:23:49;7.00;;;2.90;;
920;SDS011;447;51.332;6.778;2022-11-18T18:26:15;5.33;;;3.03;;
920;SDS011;447;51.332;6.778;2022-11-18T18:28:41;4.63;;;2.70;;
920;SDS011;447;51.332;6.778;2022-11-18T18:31:08;4.97;;;3.43;;
920;SDS011;447;51.332;6.778;2022-11-18T18:33:37;3.90;;;3.50;;
920;SDS011;447;51.332;6.778;2022-11-18T18:36:08;5.37;;;3.60;;
920;SDS011;447;51.332;6.778;2022-11-18T18:38:39;6.20;;;3.40;;
920;SDS011;447;51.332;6.778;2022-11-18T18:41:07;4.43;;;3.10;;
920;SDS011;447;51.332;6.778;2022-11-18T18:43:35;4.53;;;3.23;;
920;SDS011;447;51.332;6.778;2022-11-18T18:49:12;5.60;;;3.80;;
920;SDS011;447;51.332;6.778;2022-11-18T18:57:59;4.10;;;3.03;;
920;SDS011;447;51.332;6.778;2022-11-18T19:00:25;3.50;;;3.10;;
920;SDS011;447;51.332;6.778;2022-11-18T19:02:51;4.20;;;2.80;;
920;SDS011;447;51.332;6.778;2022-11-18T19:05:17;4.77;;;3.53;;
920;SDS011;447;51.332;6.778;2022-11-18T19:07:43;3.70;;;2.90;;
920;SDS011;447;51.332;6.778;2022-11-18T19:10:12;4.47;;;3.40;;
920;SDS011;447;51.332;6.778;2022-11-18T19:12:38;4.03;;;3.37;;
920;SDS011;447;51.332;6.778;2022-11-18T19:15:16;5.27;;;3.97;;
920;SDS011;447;51.332;6.778;2022-11-18T19:20:36;6.93;;;3.57;;
920;SDS011;447;51.332;6.778;2022-11-18T19:23:03;4.30;;;3.37;;
920;SDS011;447;51.332;6.778;2022-11-18T19:25:33;6.63;;;3.43;;
920;SDS011;447;51.332;6.778;2022-11-18T19:28:00;3.80;;;3.33;;
920;SDS011;447;51.332;6.778;2022-11-18T19:30:26;3.43;;;3.13;;
920;SDS011;447;51.332;6.778;2022-11-18T19:32:53;4.40;;;3.20;;
920;SDS011;447;51.332;6.778;2022-11-18T19:35:24;4.80;;;3.60;;
920;SDS011;447;51.332;6.778;2022-11-18T19:37:51;5.17;;;3.50;;
920;SDS011;447;51.332;6.778;2022-11-18T19:40:17;3.90;;;2.63;;
920;SDS011;447;51.332;6.778;2022-11-18T19:42:43;5.10;;;3.10;;
920;SDS011;447;51.332;6.778;2022-11-18T19:45:09;3.87;;;3.13;;
920;SDS011;447;51.332;6.778;2022-11-18T19:47:36;5.90;;;3.00;;
920;SDS011;447;51.332;6.778;2022-11-18T19:50:03;6.30;;;3.57;;
920;SDS011;447;51.332;6.778;2022-11-18T19:52:30;4.20;;;3.50;;
920;SDS011;447;51.332;6.778;2022-11-18T19:54:56;3.80;;;3.37;;
920;SDS011;447;51.332;6.778;2022-11-18T19:57:23;5.40;;;3.07;;
920;SDS011;447;51.332;6.778;2022-11-18T19:59:49;4.73;;;3.40;;
920;SDS011;447;51.332;6.778;2022-11-18T20:02:15;3.63;;;3.07;;
920;SDS011;447;51.332;6.778;2022-11-18T20:04:41;7.37;;;3.90;;
920;SDS011;447;51.332;6.778;2022-11-18T20:07:27;3.90;;;3.50;;
920;SDS011;447;51.332;6.778;2022-11-18T20:09:54;4.83;;;3.50;;
920;SDS011;447;51.332;6.778;2022-11-18T20:12:22;5.03;;;3.70;;
920;SDS011;447;51.332;6.778;2022-11-18T20:14:48;7.20;;;4.37;;
920;SDS011;447;51.332;6.778;2022-11-18T20:17:16;4.10;;;3.47;;
920;SDS011;447;51.332;6.778;2022-11-18T20:19:42;3.80;;;3.40;;
920;SDS011;447;51.332;6.778;2022-11-18T20:22:08;6.50;;;3.30;;
920;SDS011;447;51.332;6.778;2022-11-18T20:24:34;6.07;;;3.97;;
920;SDS011;447;51.332;6.778;2022-11-18T20:27:00;3.87;;;3.40;;
920;SDS011;447;51.332;6.778;2022-11-18T20:29:26;4.37;;;3.83;;
920;SDS011;447;51.332;6.778;2022-11-18T20:31:52;5.57;;;3.27;;
920;SDS011;447;51.332;6.778;2022-11-18T20:34:19;3.93;;;3.37;;
920;SDS011;447;51.332;6.778;2022-11-18T20:36:46;4.30;;;3.77;;
920;SDS011;447;51.332;6.778;2022-11-18T20:39:16;7.30;;;3.93;;
920;SDS011;447;51.332;6.778;2022-11-18T20:41:42;4.90;;;4.00;;
920;SDS011;447;51.332;6.778;2022-11-18T20:44:29;5.27;;;3.80;;
920;SDS011;447;51.332;6.778;2022-11-18T20:46:55;6.40;;;4.47;;
920;SDS011;447;51.332;6.778;2022-11-18T20:49:21;4.60;;;3.90;;
920;SDS011;447;51.332;6.778;2022-11-18T20:51:47;4.57;;;4.00;;
920;SDS011;447;51.332;6.778;2022-11-18T20:54:13;6.10;;;4.57;;
920;SDS011;447;51.332;6.778;2022-11-18T20:56:41;4.90;;;4.03;;
920;SDS011;447;51.332;6.778;2022-11-18T20:59:07;5.60;;;4.10;;
920;SDS011;447;51.332;6.778;2022-11-18T21:01:33;8.30;;;4.27;;
920;SDS011;447;51.332;6.778;2022-11-18T21:04:00;5.40;;;4.90;;
920;SDS011;447;51.332;6.778;2022-11-18T21:06:28;7.47;;;5.00;;
920;SDS011;447;51.332;6.778;2022-11-18T21:08:59;6.20;;;4.63;;
920;SDS011;447;51.332;6.778;2022-11-18T21:11:27;4.53;;;4.07;;
920;SDS011;447;51.332;6.778;2022-11-18T21:13:53;5.23;;;3.83;;
920;SDS011;447;51.332;6.778;2022-11-18T21:16:39;4.70;;;4.10;;
920;SDS011;447;51.332;6.778;2022-11-18T21:19:05;5.40;;;4.30;;
920;SDS011;447;51.332;6.778;2022-11-18T21:21:31;6.03;;;4.10;;
920;SDS011;447;51.332;6.778;2022-11-18T21:24:10;5.03;;;4.13;;
920;SDS011;447;51.332;6.778;2022-11-18T21:26:40;5.40;;;4.33;;
920;SDS011;447;51.332;6.778;2022-11-18T21:29:07;5.20;;;4.13;;
920;SDS011;447;51.332;6.778;2022-11-18T21:31:35;4.83;;;4.43;;
920;SDS011;447;51.332;6.778;2022-11-18T21:34:01;6.90;;;4.60;;
920;SDS011;447;51.332;6.778;2022-11-18T21:36:28;4.80;;;4.10;;
920;SDS011;447;51.332;6.778;2022-11-18T21:38:57;6.40;;;4.20;;
920;SDS011;447;51.332;6.778;2022-11-18T21:41:25;5.17;;;3.67;;
920;SDS011;447;51.332;6.778;2022-11-18T21:43:52;4.80;;;4.40;;
920;SDS011;447;51.332;6.778;2022-11-18T21:46:18;4.23;;;3.83;;
920;SDS011;447;51.332;6.778;2022-11-18T21:48:45;7.50;;;3.90;;
920;SDS011;447;51.332;6.778;2022-11-18T21:51:13;4.30;;;3.90;;
920;SDS011;447;51.332;6.778;2022-11-18T21:53:41;7.37;;;3.83;;
920;SDS011;447;51.332;6.778;2022-11-18T21:56:12;4.97;;;3.90;;
920;SDS011;447;51.332;6.778;2022-11-18T21:58:43;4.57;;;4.07;;
920;SDS011;447;51.332;6.778;2022-11-18T22:01:14;7.60;;;4.23;;
920;SDS011;447;51.332;6.778;2022-11-18T22:03:50;4.90;;;4.17;;
920;SDS011;447;51.332;6.778;2022-11-18T22:06:18;5.20;;;4.23;;
920;SDS011;447;51.332;6.778;2022-11-18T22:08:45;4.50;;;3.80;;
920;SDS011;447;51.332;6.778;2022-11-18T22:11:17;5.33;;;4.70;;
920;SDS011;447;51.332;6.778;2022-11-18T22:13:48;4.83;;;4.30;;
920;SDS011;447;51.332;6.778;2022-11-18T22:16:16;4.73;;;4.03;;
920;SDS011;447;51.332;6.778;2022-11-18T22:18:44;5.37;;;3.70;;
920;SDS011;447;51.332;6.778;2022-11-18T22:21:13;4.03;;;3.40;;
920;SDS011;447;51.332;6.778;2022-11-18T22:23:40;5.63;;;4.10;;
920;SDS011;447;51.332;6.778;2022-11-18T22:26:16;5.10;;;4.10;;
920;SDS011;447;51.332;6.778;2022-11-18T22:28:44;4.50;;;3.70;;
920;SDS011;447;51.332;6.778;2022-11-18T22:31:14;4.60;;;3.93;;
920;SDS011;447;51.332;6.778;2022-11-18T22:33:56;5.23;;;4.53;;
920;SDS011;447;51.332;6.778;2022-11-18T22:36:23;6.47;;;4.10;;
920;SDS011;447;51.332;6.778;2022-11-18T22:38:53;4.30;;;3.90;;
920;SDS011;447;51.332;6.778;2022-11-18T22:41:37;4.50;;;4.10;;
920;SDS011;447;51.332;6.778;2022-11-18T22:44:24;6.23;;;3.80;;
920;SDS011;447;51.332;6.778;2022-11-18T22:46:50;4.50;;;4.10;;
920;SDS011;447;51.332;6.778;2022-11-18T22:49:16;4.23;;;3.80;;
920;SDS011;447;51.332;6.778;2022-11-18T22:51:42;5.93;;;4.30;;
920;SDS011;447;51.332;6.778;2022-11-18T22:54:08;4.47;;;3.70;;
920;SDS011;447;51.332;6.778;2022-11-18T22:56:34;5.17;;;4.20;;
920;SDS011;447;51.332;6.778;2022-11-18T22:59:00;5.27;;;4.10;;
920;SDS011;447;51.332;6.778;2022-11-18T23:01:26;3.70;;;3.37;;
920;SDS011;447;51.332;6.778;2022-11-18T23:03:52;4.40;;;4.00;;
920;SDS011;447;51.332;6.778;2022-11-18T23:06:18;5.80;;;4.50;;
920;SDS011;447;51.332;6.778;2022-11-18T23:08:44;3.80;;;3.37;;
920;SDS011;447;51.332;6.778;2022-11-18T23:11:11;6.83;;;4.63;;
920;SDS011;447;51.332;6.778;2022-11-18T23:13:39;5.87;;;4.77;;
920;SDS011;447;51.332;6.778;2022-11-18T23:16:23;4.40;;;4.00;;
920;SDS011;447;51.332;6.778;2022-11-18T23:18:50;4.20;;;3.67;;
920;SDS011;447;51.332;6.778;2022-11-18T23:21:16;4.77;;;4.30;;
920;SDS011;447;51.332;6.778;2022-11-18T23:23:42;4.60;;;3.50;;
920;SDS011;447;51.332;6.778;2022-11-18T23:26:09;5.37;;;4.20;;
920;SDS011;447;51.332;6.778;2022-11-18T23:28:39;4.93;;;3.90;;
920;SDS011;447;51.332;6.778;2022-11-18T23:33:34;5.13;;;4.17;;
920;SDS011;447;51.332;6.778;2022-11-18T23:36:05;4.83;;;4.33;;
920;SDS011;447;51.332;6.778;2022-11-18T23:38:34;5.40;;;4.30;;
920;SDS011;447;51.332;6.778;2022-11-18T23:41:02;4.73;;;3.90;;
920;SDS011;447;51.332;6.778;2022-11-18T23:43:30;5.23;;;4.20;;
920;SDS011;447;51.332;6.778;2022-11-18T23:45:56;4.47;;;4.07;;
920;SDS011;447;51.332;6.778;2022-11-18T23:48:23;3.90;;;3.30;;
920;SDS011;447;51.332;6.778;2022-11-18T23:50:57;3.70;;;3.40;;
920;SDS011;447;51.332;6.778;2022-11-18T23:53:29;4.57;;;3.77;;
920;SDS011;447;51.332;6.778;2022-11-18T23:55:58;4.20;;;3.60;;
920;SDS011;447;51.332;6.778;2022-11-18T23:58:28;4.23;;;3.73;;
